Saint Boswells, United Kingdom
Current Conditions -  °F | °C
As of 12:50 PM on Tuesday 21 Oct 2014 (Local Time) from EGOM Reporting Station
Few Clouds Few Clouds  
Wind Chill: 37°   Ceiling: Unl
Heat Index: 46°   Visibility: 6mi
Dew Point: 36°   Wind: 32mph
Humidity: 66%   Direction: 290°WNW
Pressure: 29.44"   Gusts: 44mph
Location:  55.57°N, 2.64°W
Report Text: EGOM 211150Z 29028G38KT 9999 FEW030 08/02 Q0997 BLU
Loading
Personal Weather Stations






























Interactive Weather Map
Tropical Storm Tracking
New forecast layout! Learn more

10-Day Weather Forecast

Advertisements
Track Severe Weather on mobile